sensor_id;sensor_type;location;lat;lon;timestamp;temperature;humidity
9425;DHT22;17139;52.140;11.636;2023-06-24T00:00:59;15.10;59.10
9425;DHT22;17139;52.140;11.636;2023-06-24T00:03:27;15.10;59.20
9425;DHT22;17139;52.140;11.636;2023-06-24T00:05:54;15.30;58.90
9425;DHT22;17139;52.140;11.636;2023-06-24T00:08:22;15.30;58.70
9425;DHT22;17139;52.140;11.636;2023-06-24T00:10:51;15.20;58.90
9425;DHT22;17139;52.140;11.636;2023-06-24T00:13:18;15.10;59.00
9425;DHT22;17139;52.140;11.636;2023-06-24T00:15:45;15.00;59.00
9425;DHT22;17139;52.140;11.636;2023-06-24T00:18:12;15.00;59.20
9425;DHT22;17139;52.140;11.636;2023-06-24T00:20:39;15.00;59.20
9425;DHT22;17139;52.140;11.636;2023-06-24T00:23:08;14.90;59.10
9425;DHT22;17139;52.140;11.636;2023-06-24T00:25:35;14.90;59.20
9425;DHT22;17139;52.140;11.636;2023-06-24T00:28:04;14.80;59.20
9425;DHT22;17139;52.140;11.636;2023-06-24T00:30:31;14.80;59.20
9425;DHT22;17139;52.140;11.636;2023-06-24T00:32:58;15.20;58.70
9425;DHT22;17139;52.140;11.636;2023-06-24T00:35:25;15.00;58.40
9425;DHT22;17139;52.140;11.636;2023-06-24T00:37:52;15.10;58.40
9425;DHT22;17139;52.140;11.636;2023-06-24T00:40:24;15.00;58.40
9425;DHT22;17139;52.140;11.636;2023-06-24T00:42:51;14.90;58.80
9425;DHT22;17139;52.140;11.636;2023-06-24T00:45:20;14.80;59.00
9425;DHT22;17139;52.140;11.636;2023-06-24T00:47:47;14.70;59.10
9425;DHT22;17139;52.140;11.636;2023-06-24T00:50:15;14.60;59.20
9425;DHT22;17139;52.140;11.636;2023-06-24T00:52:42;14.50;59.20
9425;DHT22;17139;52.140;11.636;2023-06-24T00:55:09;14.40;59.20
9425;DHT22;17139;52.140;11.636;2023-06-24T00:57:37;14.30;59.20
9425;DHT22;17139;52.140;11.636;2023-06-24T01:00:05;15.10;57.90
9425;DHT22;17139;52.140;11.636;2023-06-24T01:02:41;14.90;58.00
9425;DHT22;17139;52.140;11.636;2023-06-24T01:05:09;14.90;58.10
9425;DHT22;17139;52.140;11.636;2023-06-24T01:07:38;14.60;58.20
9425;DHT22;17139;52.140;11.636;2023-06-24T01:10:06;14.40;58.60
9425;DHT22;17139;52.140;11.636;2023-06-24T01:12:34;14.30;58.90
9425;DHT22;17139;52.140;11.636;2023-06-24T01:15:02;14.20;59.00
9425;DHT22;17139;52.140;11.636;2023-06-24T01:17:34;14.10;59.10
9425;DHT22;17139;52.140;11.636;2023-06-24T01:20:06;14.00;59.20
9425;DHT22;17139;52.140;11.636;2023-06-24T01:23:24;13.90;59.30
9425;DHT22;17139;52.140;11.636;2023-06-24T01:26:14;13.90;59.20
9425;DHT22;17139;52.140;11.636;2023-06-24T01:31:41;14.30;58.00
9425;DHT22;17139;52.140;11.636;2023-06-24T01:34:18;14.60;57.60
9425;DHT22;17139;52.140;11.636;2023-06-24T01:36:55;14.30;57.90
9425;DHT22;17139;52.140;11.636;2023-06-24T01:39:24;14.00;58.40
9425;DHT22;17139;52.140;11.636;2023-06-24T01:41:58;13.80;58.80
9425;DHT22;17139;52.140;11.636;2023-06-24T01:44:28;13.70;59.00
9425;DHT22;17139;52.140;11.636;2023-06-24T01:46:58;13.60;59.10
9425;DHT22;17139;52.140;11.636;2023-06-24T01:49:28;13.60;59.30
9425;DHT22;17139;52.140;11.636;2023-06-24T01:51:57;13.50;59.20
9425;DHT22;17139;52.140;11.636;2023-06-24T01:54:26;13.40;59.20
9425;DHT22;17139;52.140;11.636;2023-06-24T01:56:56;13.40;59.20
9425;DHT22;17139;52.140;11.636;2023-06-24T01:59:27;13.40;59.20
9425;DHT22;17139;52.140;11.636;2023-06-24T02:01:57;14.00;58.10
9425;DHT22;17139;52.140;11.636;2023-06-24T02:04:24;13.90;58.10
9425;DHT22;17139;52.140;11.636;2023-06-24T02:06:53;13.70;58.50
9425;DHT22;17139;52.140;11.636;2023-06-24T02:09:21;13.50;58.60
9425;DHT22;17139;52.140;11.636;2023-06-24T02:11:49;13.40;58.80
9425;DHT22;17139;52.140;11.636;2023-06-24T02:14:17;13.40;59.50
9425;DHT22;17139;52.140;11.636;2023-06-24T02:16:46;13.30;58.80
9425;DHT22;17139;52.140;11.636;2023-06-24T02:19:16;13.20;58.80
9425;DHT22;17139;52.140;11.636;2023-06-24T02:21:44;13.20;59.00
9425;DHT22;17139;52.140;11.636;2023-06-24T02:24:12;13.90;57.50
9425;DHT22;17139;52.140;11.636;2023-06-24T02:26:39;13.70;57.60
9425;DHT22;17139;52.140;11.636;2023-06-24T02:29:08;13.80;57.70
9425;DHT22;17139;52.140;11.636;2023-06-24T02:31:37;13.60;57.80
9425;DHT22;17139;52.140;11.636;2023-06-24T02:34:04;13.50;58.30
9425;DHT22;17139;52.140;11.636;2023-06-24T02:36:33;13.30;58.50
9425;DHT22;17139;52.140;11.636;2023-06-24T02:38:59;13.30;58.70
9425;DHT22;17139;52.140;11.636;2023-06-24T02:41:27;13.20;58.70
9425;DHT22;17139;52.140;11.636;2023-06-24T02:43:54;13.10;58.60
9425;DHT22;17139;52.140;11.636;2023-06-24T02:46:22;13.10;58.70
9425;DHT22;17139;52.140;11.636;2023-06-24T02:48:49;13.20;58.70
9425;DHT22;17139;52.140;11.636;2023-06-24T02:51:18;13.50;58.30
9425;DHT22;17139;52.140;11.636;2023-06-24T02:53:47;13.50;58.10
9425;DHT22;17139;52.140;11.636;2023-06-24T02:56:15;13.70;57.80
9425;DHT22;17139;52.140;11.636;2023-06-24T02:58:46;13.70;57.80
9425;DHT22;17139;52.140;11.636;2023-06-24T03:01:14;13.50;58.00
9425;DHT22;17139;52.140;11.636;2023-06-24T03:03:42;13.40;58.10
9425;DHT22;17139;52.140;11.636;2023-06-24T03:06:14;13.30;58.30
9425;DHT22;17139;52.140;11.636;2023-06-24T03:08:44;13.20;58.40
9425;DHT22;17139;52.140;11.636;2023-06-24T03:11:14;13.20;58.50
9425;DHT22;17139;52.140;11.636;2023-06-24T03:13:41;13.20;58.50
9425;DHT22;17139;52.140;11.636;2023-06-24T03:16:08;13.10;58.50
9425;DHT22;17139;52.140;11.636;2023-06-24T03:18:37;13.50;57.80
9425;DHT22;17139;52.140;11.636;2023-06-24T03:21:05;13.50;57.80
9425;DHT22;17139;52.140;11.636;2023-06-24T03:23:32;13.30;58.00
9425;DHT22;17139;52.140;11.636;2023-06-24T03:25:59;14.00;56.80
9425;DHT22;17139;52.140;11.636;2023-06-24T03:28:29;13.80;57.00
9425;DHT22;17139;52.140;11.636;2023-06-24T03:30:57;13.60;57.60
9425;DHT22;17139;52.140;11.636;2023-06-24T03:33:24;13.40;57.80
9425;DHT22;17139;52.140;11.636;2023-06-24T03:35:53;13.40;58.10
9425;DHT22;17139;52.140;11.636;2023-06-24T03:38:20;13.30;58.20
9425;DHT22;17139;52.140;11.636;2023-06-24T03:40:48;13.30;58.30
9425;DHT22;17139;52.140;11.636;2023-06-24T03:43:15;13.20;58.30
9425;DHT22;17139;52.140;11.636;2023-06-24T03:45:43;13.30;58.40
9425;DHT22;17139;52.140;11.636;2023-06-24T03:48:10;13.90;60.60
9425;DHT22;17139;52.140;11.636;2023-06-24T03:50:37;13.90;59.30
9425;DHT22;17139;52.140;11.636;2023-06-24T03:53:04;13.80;59.30
9425;DHT22;17139;52.140;11.636;2023-06-24T03:55:31;14.50;61.90
9425;DHT22;17139;52.140;11.636;2023-06-24T03:57:58;14.30;59.90
9425;DHT22;17139;52.140;11.636;2023-06-24T04:00:25;14.20;60.00
9425;DHT22;17139;52.140;11.636;2023-06-24T04:02:54;14.00;60.10
9425;DHT22;17139;52.140;11.636;2023-06-24T04:05:22;14.00;60.30
9425;DHT22;17139;52.140;11.636;2023-06-24T04:07:51;13.90;60.30
9425;DHT22;17139;52.140;11.636;2023-06-24T04:10:19;13.90;60.50
9425;DHT22;17139;52.140;11.636;2023-06-24T04:12:46;13.80;60.60
9425;DHT22;17139;52.140;11.636;2023-06-24T04:15:13;13.80;60.80
9425;DHT22;17139;52.140;11.636;2023-06-24T04:17:40;14.10;63.10
9425;DHT22;17139;52.140;11.636;2023-06-24T04:20:09;14.00;61.00
9425;DHT22;17139;52.140;11.636;2023-06-24T04:22:37;14.00;61.10
9425;DHT22;17139;52.140;11.636;2023-06-24T04:25:05;15.00;63.00
9425;DHT22;17139;52.140;11.636;2023-06-24T04:27:32;14.70;61.20
9425;DHT22;17139;52.140;11.636;2023-06-24T04:30:00;14.50;61.40
9425;DHT22;17139;52.140;11.636;2023-06-24T04:32:27;14.40;61.40
9425;DHT22;17139;52.140;11.636;2023-06-24T04:34:54;14.40;61.50
9425;DHT22;17139;52.140;11.636;2023-06-24T04:37:22;14.50;61.60
9425;DHT22;17139;52.140;11.636;2023-06-24T04:39:49;14.60;61.60
9425;DHT22;17139;52.140;11.636;2023-06-24T04:42:16;14.70;61.70
9425;DHT22;17139;52.140;11.636;2023-06-24T04:44:43;14.70;61.60
9425;DHT22;17139;52.140;11.636;2023-06-24T04:47:10;14.90;62.00
9425;DHT22;17139;52.140;11.636;2023-06-24T04:49:39;15.10;62.60
9425;DHT22;17139;52.140;11.636;2023-06-24T04:52:07;15.50;64.30
9425;DHT22;17139;52.140;11.636;2023-06-24T04:54:35;15.70;62.70
9425;DHT22;17139;52.140;11.636;2023-06-24T04:57:08;16.00;62.80
9425;DHT22;17139;52.140;11.636;2023-06-24T04:59:35;16.20;62.70
9425;DHT22;17139;52.140;11.636;2023-06-24T05:02:04;16.50;62.40
9425;DHT22;17139;52.140;11.636;2023-06-24T05:04:31;16.70;62.70
9425;DHT22;17139;52.140;11.636;2023-06-24T05:06:57;16.90;63.00
9425;DHT22;17139;52.140;11.636;2023-06-24T05:09:24;17.20;62.50
9425;DHT22;17139;52.140;11.636;2023-06-24T05:11:53;17.40;62.60
9425;DHT22;17139;52.140;11.636;2023-06-24T05:14:20;17.60;62.60
9425;DHT22;17139;52.140;11.636;2023-06-24T05:16:47;17.80;62.50
9425;DHT22;17139;52.140;11.636;2023-06-24T05:19:14;18.10;62.30
9425;DHT22;17139;52.140;11.636;2023-06-24T05:21:42;19.20;59.60
9425;DHT22;17139;52.140;11.636;2023-06-24T05:24:09;19.10;60.00
9425;DHT22;17139;52.140;11.636;2023-06-24T05:26:36;19.00;60.60
9425;DHT22;17139;52.140;11.636;2023-06-24T05:29:04;18.90;60.90
9425;DHT22;17139;52.140;11.636;2023-06-24T05:31:31;19.00;61.40
9425;DHT22;17139;52.140;11.636;2023-06-24T05:33:58;19.20;61.60
9425;DHT22;17139;52.140;11.636;2023-06-24T05:36:25;19.40;61.60
9425;DHT22;17139;52.140;11.636;2023-06-24T05:38:52;19.50;61.20
9425;DHT22;17139;52.140;11.636;2023-06-24T05:41:19;19.60;61.30
9425;DHT22;17139;52.140;11.636;2023-06-24T05:43:46;20.40;58.80
9425;DHT22;17139;52.140;11.636;2023-06-24T05:46:14;20.40;59.90
9425;DHT22;17139;52.140;11.636;2023-06-24T05:48:41;20.40;60.50
9425;DHT22;17139;52.140;11.636;2023-06-24T05:51:08;22.10;55.80
9425;DHT22;17139;52.140;11.636;2023-06-24T05:53:35;21.60;57.60
9425;DHT22;17139;52.140;11.636;2023-06-24T05:56:02;21.20;58.20
9425;DHT22;17139;52.140;11.636;2023-06-24T05:58:29;21.20;57.80
9425;DHT22;17139;52.140;11.636;2023-06-24T06:00:56;20.80;58.10
9425;DHT22;17139;52.140;11.636;2023-06-24T06:03:27;20.40;58.90
9425;DHT22;17139;52.140;11.636;2023-06-24T06:05:55;19.90;59.20
9425;DHT22;17139;52.140;11.636;2023-06-24T06:08:22;19.60;59.70
9425;DHT22;17139;52.140;11.636;2023-06-24T06:10:49;20.40;57.30
9425;DHT22;17139;52.140;11.636;2023-06-24T06:13:16;19.80;58.20
9425;DHT22;17139;52.140;11.636;2023-06-24T06:15:43;20.20;57.30
9425;DHT22;17139;52.140;11.636;2023-06-24T06:18:10;19.80;58.10
9425;DHT22;17139;52.140;11.636;2023-06-24T06:20:38;19.50;58.60
9425;DHT22;17139;52.140;11.636;2023-06-24T06:23:07;19.40;59.00
9425;DHT22;17139;52.140;11.636;2023-06-24T06:25:34;19.30;59.00
9425;DHT22;17139;52.140;11.636;2023-06-24T06:28:01;19.20;59.00
9425;DHT22;17139;52.140;11.636;2023-06-24T06:30:27;19.00;59.30
9425;DHT22;17139;52.140;11.636;2023-06-24T06:32:55;18.90;59.20
9425;DHT22;17139;52.140;11.636;2023-06-24T06:35:22;19.60;58.40
9425;DHT22;17139;52.140;11.636;2023-06-24T06:37:50;19.10;58.30
9425;DHT22;17139;52.140;11.636;2023-06-24T06:40:20;18.80;59.10
9425;DHT22;17139;52.140;11.636;2023-06-24T06:42:47;18.50;59.10
9425;DHT22;17139;52.140;11.636;2023-06-24T06:45:14;18.40;59.50
9425;DHT22;17139;52.140;11.636;2023-06-24T06:47:41;18.30;59.70
9425;DHT22;17139;52.140;11.636;2023-06-24T06:50:08;18.30;59.60
9425;DHT22;17139;52.140;11.636;2023-06-24T06:52:35;18.30;59.60
9425;DHT22;17139;52.140;11.636;2023-06-24T06:55:05;18.40;59.60
9425;DHT22;17139;52.140;11.636;2023-06-24T06:57:33;18.50;59.60
9425;DHT22;17139;52.140;11.636;2023-06-24T06:59:59;18.60;59.40
9425;DHT22;17139;52.140;11.636;2023-06-24T07:02:26;18.70;59.00
9425;DHT22;17139;52.140;11.636;2023-06-24T07:04:53;19.30;58.50
9425;DHT22;17139;52.140;11.636;2023-06-24T07:07:20;19.50;58.30
9425;DHT22;17139;52.140;11.636;2023-06-24T07:09:47;19.50;58.10
9425;DHT22;17139;52.140;11.636;2023-06-24T07:12:16;19.10;58.40
9425;DHT22;17139;52.140;11.636;2023-06-24T07:14:43;19.00;59.30
9425;DHT22;17139;52.140;11.636;2023-06-24T07:17:10;19.00;59.30
9425;DHT22;17139;52.140;11.636;2023-06-24T07:19:37;18.90;59.20
9425;DHT22;17139;52.140;11.636;2023-06-24T07:22:04;18.90;59.30
9425;DHT22;17139;52.140;11.636;2023-06-24T07:24:31;19.50;59.30
9425;DHT22;17139;52.140;11.636;2023-06-24T07:26:58;19.40;59.00
9425;DHT22;17139;52.140;11.636;2023-06-24T07:29:27;20.30;57.60
9425;DHT22;17139;52.140;11.636;2023-06-24T07:31:54;20.00;57.90
9425;DHT22;17139;52.140;11.636;2023-06-24T07:34:21;19.60;58.30
9425;DHT22;17139;52.140;11.636;2023-06-24T07:36:48;19.40;58.80
9425;DHT22;17139;52.140;11.636;2023-06-24T07:39:16;19.20;59.00
9425;DHT22;17139;52.140;11.636;2023-06-24T07:41:43;19.70;58.20
9425;DHT22;17139;52.140;11.636;2023-06-24T07:44:10;19.60;58.50
9425;DHT22;17139;52.140;11.636;2023-06-24T07:46:39;19.50;58.70
9425;DHT22;17139;52.140;11.636;2023-06-24T07:49:06;20.10;57.60
9425;DHT22;17139;52.140;11.636;2023-06-24T07:51:33;19.80;58.10
9425;DHT22;17139;52.140;11.636;2023-06-24T07:54:00;19.90;57.80
9425;DHT22;17139;52.140;11.636;2023-06-24T07:56:27;19.50;58.20
9425;DHT22;17139;52.140;11.636;2023-06-24T07:58:55;19.30;58.50
9425;DHT22;17139;52.140;11.636;2023-06-24T08:01:22;19.40;58.20
9425;DHT22;17139;52.140;11.636;2023-06-24T08:03:50;19.20;58.60
9425;DHT22;17139;52.140;11.636;2023-06-24T08:06:17;19.00;59.00
9425;DHT22;17139;52.140;11.636;2023-06-24T08:08:44;19.00;59.90
9425;DHT22;17139;52.140;11.636;2023-06-24T08:11:12;19.50;58.90
9425;DHT22;17139;52.140;11.636;2023-06-24T08:13:39;19.40;58.70
9425;DHT22;17139;52.140;11.636;2023-06-24T08:16:06;19.30;58.80
9425;DHT22;17139;52.140;11.636;2023-06-24T08:18:33;19.80;58.00
9425;DHT22;17139;52.140;11.636;2023-06-24T08:21:01;19.60;58.00
9425;DHT22;17139;52.140;11.636;2023-06-24T08:23:28;19.40;58.30
9425;DHT22;17139;52.140;11.636;2023-06-24T08:25:55;19.30;58.70
9425;DHT22;17139;52.140;11.636;2023-06-24T08:28:22;19.30;58.90
9425;DHT22;17139;52.140;11.636;2023-06-24T08:30:49;19.20;58.70
9425;DHT22;17139;52.140;11.636;2023-06-24T08:33:16;19.20;59.00
9425;DHT22;17139;52.140;11.636;2023-06-24T08:35:43;19.10;58.80
9425;DHT22;17139;52.140;11.636;2023-06-24T08:38:12;19.20;58.40
9425;DHT22;17139;52.140;11.636;2023-06-24T08:40:39;19.10;58.40
9425;DHT22;17139;52.140;11.636;2023-06-24T08:43:06;19.10;58.80
9425;DHT22;17139;52.140;11.636;2023-06-24T08:45:33;19.00;58.70
9425;DHT22;17139;52.140;11.636;2023-06-24T08:48:01;19.10;59.10
9425;DHT22;17139;52.140;11.636;2023-06-24T08:50:34;19.10;59.00
9425;DHT22;17139;52.140;11.636;2023-06-24T08:53:04;19.20;58.90
9425;DHT22;17139;52.140;11.636;2023-06-24T08:55:39;19.20;58.70
9425;DHT22;17139;52.140;11.636;2023-06-24T08:58:07;19.20;58.40
9425;DHT22;17139;52.140;11.636;2023-06-24T09:00:34;19.10;58.60
9425;DHT22;17139;52.140;11.636;2023-06-24T09:03:02;19.10;58.70
9425;DHT22;17139;52.140;11.636;2023-06-24T09:05:29;19.20;58.70
9425;DHT22;17139;52.140;11.636;2023-06-24T09:07:56;19.80;57.00
9425;DHT22;17139;52.140;11.636;2023-06-24T09:10:30;19.70;57.50
9425;DHT22;17139;52.140;11.636;2023-06-24T09:12:59;19.60;57.80
9425;DHT22;17139;52.140;11.636;2023-06-24T09:15:30;20.30;55.90
9425;DHT22;17139;52.140;11.636;2023-06-24T09:17:57;20.00;56.80
9425;DHT22;17139;52.140;11.636;2023-06-24T09:20:26;19.80;57.30
9425;DHT22;17139;52.140;11.636;2023-06-24T09:22:57;19.70;57.50
9425;DHT22;17139;52.140;11.636;2023-06-24T09:25:25;19.60;57.50
9425;DHT22;17139;52.140;11.636;2023-06-24T09:27:52;19.40;57.60
9425;DHT22;17139;52.140;11.636;2023-06-24T09:30:23;19.40;57.80
9425;DHT22;17139;52.140;11.636;2023-06-24T09:32:51;19.40;57.80
9425;DHT22;17139;52.140;11.636;2023-06-24T09:35:20;19.40;58.00
9425;DHT22;17139;52.140;11.636;2023-06-24T09:37:51;19.40;58.00
9425;DHT22;17139;52.140;11.636;2023-06-24T09:40:18;19.50;57.80
9425;DHT22;17139;52.140;11.636;2023-06-24T09:42:52;19.90;56.70
9425;DHT22;17139;52.140;11.636;2023-06-24T09:45:34;19.90;57.00
9425;DHT22;17139;52.140;11.636;2023-06-24T09:48:01;19.90;57.20
9425;DHT22;17139;52.140;11.636;2023-06-24T09:50:29;19.90;57.30
9425;DHT22;17139;52.140;11.636;2023-06-24T09:52:57;19.90;57.50
9425;DHT22;17139;52.140;11.636;2023-06-24T09:55:25;20.00;57.40
9425;DHT22;17139;52.140;11.636;2023-06-24T09:57:53;20.00;57.20
9425;DHT22;17139;52.140;11.636;2023-06-24T10:00:21;20.00;57.20
9425;DHT22;17139;52.140;11.636;2023-06-24T10:02:53;20.00;57.20
9425;DHT22;17139;52.140;11.636;2023-06-24T10:05:21;20.60;54.30
9425;DHT22;17139;52.140;11.636;2023-06-24T10:07:48;20.30;55.70
9425;DHT22;17139;52.140;11.636;2023-06-24T10:10:15;20.30;56.40
9425;DHT22;17139;52.140;11.636;2023-06-24T10:12:43;20.90;55.00
9425;DHT22;17139;52.140;11.636;2023-06-24T10:15:10;20.80;55.60
9425;DHT22;17139;52.140;11.636;2023-06-24T10:17:38;21.20;55.00
9425;DHT22;17139;52.140;11.636;2023-06-24T10:20:07;20.90;55.50
9425;DHT22;17139;52.140;11.636;2023-06-24T10:22:35;20.80;55.90
9425;DHT22;17139;52.140;11.636;2023-06-24T10:25:05;20.70;55.90
9425;DHT22;17139;52.140;11.636;2023-06-24T10:27:38;20.60;56.10
9425;DHT22;17139;52.140;11.636;2023-06-24T10:30:08;20.60;56.20
9425;DHT22;17139;52.140;11.636;2023-06-24T10:32:43;20.50;56.30
9425;DHT22;17139;52.140;11.636;2023-06-24T10:35:23;21.30;53.80
9425;DHT22;17139;52.140;11.636;2023-06-24T10:37:56;21.10;55.00
9425;DHT22;17139;52.140;11.636;2023-06-24T10:40:36;21.40;53.20
9425;DHT22;17139;52.140;11.636;2023-06-24T10:43:25;21.10;54.40
9425;DHT22;17139;52.140;11.636;2023-06-24T10:45:53;20.90;55.20
9425;DHT22;17139;52.140;11.636;2023-06-24T10:48:20;20.80;55.50
9425;DHT22;17139;52.140;11.636;2023-06-24T10:50:49;20.70;55.70
9425;DHT22;17139;52.140;11.636;2023-06-24T10:53:16;21.20;54.10
9425;DHT22;17139;52.140;11.636;2023-06-24T10:55:45;21.00;54.80
9425;DHT22;17139;52.140;11.636;2023-06-24T10:58:13;20.90;55.30
9425;DHT22;17139;52.140;11.636;2023-06-24T11:00:41;21.30;53.60
9425;DHT22;17139;52.140;11.636;2023-06-24T11:03:10;21.20;54.40
9425;DHT22;17139;52.140;11.636;2023-06-24T11:05:39;21.70;52.50
9425;DHT22;17139;52.140;11.636;2023-06-24T11:08:08;21.40;54.00
9425;DHT22;17139;52.140;11.636;2023-06-24T11:10:42;21.20;54.80
9425;DHT22;17139;52.140;11.636;2023-06-24T11:13:10;21.10;55.00
9425;DHT22;17139;52.140;11.636;2023-06-24T11:15:38;21.10;55.30
9425;DHT22;17139;52.140;11.636;2023-06-24T11:18:08;21.20;54.70
9425;DHT22;17139;52.140;11.636;2023-06-24T11:20:36;21.20;55.00
9425;DHT22;17139;52.140;11.636;2023-06-24T11:23:08;21.10;55.30
9425;DHT22;17139;52.140;11.636;2023-06-24T11:25:39;21.10;55.40
9425;DHT22;17139;52.140;11.636;2023-06-24T11:28:13;21.10;55.50
9425;DHT22;17139;52.140;11.636;2023-06-24T11:30:40;21.10;55.60
9425;DHT22;17139;52.140;11.636;2023-06-24T11:33:07;21.20;55.60
9425;DHT22;17139;52.140;11.636;2023-06-24T11:35:34;21.20;55.50
9425;DHT22;17139;52.140;11.636;2023-06-24T11:38:03;21.30;55.30
9425;DHT22;17139;52.140;11.636;2023-06-24T11:40:32;21.40;55.40
9425;DHT22;17139;52.140;11.636;2023-06-24T11:43:00;21.40;55.30
9425;DHT22;17139;52.140;11.636;2023-06-24T11:45:28;21.70;53.70
9425;DHT22;17139;52.140;11.636;2023-06-24T11:48:02;21.60;54.50
9425;DHT22;17139;52.140;11.636;2023-06-24T11:50:31;21.50;54.70
9425;DHT22;17139;52.140;11.636;2023-06-24T11:52:58;21.80;53.40
9425;DHT22;17139;52.140;11.636;2023-06-24T11:55:26;21.70;54.10
9425;DHT22;17139;52.140;11.636;2023-06-24T11:57:56;21.70;54.50
9425;DHT22;17139;52.140;11.636;2023-06-24T12:00:25;21.70;54.90
9425;DHT22;17139;52.140;11.636;2023-06-24T12:02:56;21.70;54.90
9425;DHT22;17139;52.140;11.636;2023-06-24T12:05:25;21.70;54.70
9425;DHT22;17139;52.140;11.636;2023-06-24T12:08:01;21.80;54.90
9425;DHT22;17139;52.140;11.636;2023-06-24T12:10:29;21.80;54.60
9425;DHT22;17139;52.140;11.636;2023-06-24T12:12:59;21.80;54.70
9425;DHT22;17139;52.140;11.636;2023-06-24T12:15:27;21.80;54.60
9425;DHT22;17139;52.140;11.636;2023-06-24T12:17:54;21.70;54.60
9425;DHT22;17139;52.140;11.636;2023-06-24T12:20:22;21.90;53.70
9425;DHT22;17139;52.140;11.636;2023-06-24T12:22:49;21.90;53.80
9425;DHT22;17139;52.140;11.636;2023-06-24T12:25:16;21.80;54.00
9425;DHT22;17139;52.140;11.636;2023-06-24T12:27:44;21.80;54.30
9425;DHT22;17139;52.140;11.636;2023-06-24T12:30:13;21.90;54.50
9425;DHT22;17139;52.140;11.636;2023-06-24T12:32:42;22.00;54.30
9425;DHT22;17139;52.140;11.636;2023-06-24T12:35:09;22.00;54.20
9425;DHT22;17139;52.140;11.636;2023-06-24T12:37:36;22.00;54.20
9425;DHT22;17139;52.140;11.636;2023-06-24T12:40:04;22.70;51.80
9425;DHT22;17139;52.140;11.636;2023-06-24T12:42:32;22.50;53.00
9425;DHT22;17139;52.140;11.636;2023-06-24T12:44:59;22.60;52.40
9425;DHT22;17139;52.140;11.636;2023-06-24T12:47:28;22.50;53.00
9425;DHT22;17139;52.140;11.636;2023-06-24T12:49:55;22.50;53.50
9425;DHT22;17139;52.140;11.636;2023-06-24T12:52:22;22.50;53.80
9425;DHT22;17139;52.140;11.636;2023-06-24T12:54:49;22.60;53.80
9425;DHT22;17139;52.140;11.636;2023-06-24T12:57:16;22.60;53.80
9425;DHT22;17139;52.140;11.636;2023-06-24T12:59:43;22.60;53.60
9425;DHT22;17139;52.140;11.636;2023-06-24T13:02:10;22.50;53.80
9425;DHT22;17139;52.140;11.636;2023-06-24T13:04:39;22.50;53.80
9425;DHT22;17139;52.140;11.636;2023-06-24T13:07:06;22.60;53.90
9425;DHT22;17139;52.140;11.636;2023-06-24T13:09:35;22.60;53.60
9425;DHT22;17139;52.140;11.636;2023-06-24T13:12:02;22.60;53.70
9425;DHT22;17139;52.140;11.636;2023-06-24T13:14:29;22.60;53.60
9425;DHT22;17139;52.140;11.636;2023-06-24T13:20:20;22.80;53.60
9425;DHT22;17139;52.140;11.636;2023-06-24T13:22:47;22.70;53.60
9425;DHT22;17139;52.140;11.636;2023-06-24T13:25:14;22.80;53.70
9425;DHT22;17139;52.140;11.636;2023-06-24T13:31:02;22.90;53.20
9425;DHT22;17139;52.140;11.636;2023-06-24T13:33:29;22.90;53.50
9425;DHT22;17139;52.140;11.636;2023-06-24T13:35:58;22.80;53.20
9425;DHT22;17139;52.140;11.636;2023-06-24T13:38:25;23.60;49.80
9425;DHT22;17139;52.140;11.636;2023-06-24T13:40:52;23.40;51.50
9425;DHT22;17139;52.140;11.636;2023-06-24T13:43:19;23.20;52.00
9425;DHT22;17139;52.140;11.636;2023-06-24T13:45:46;23.20;52.40
9425;DHT22;17139;52.140;11.636;2023-06-24T13:48:13;23.10;52.50
9425;DHT22;17139;52.140;11.636;2023-06-24T13:50:40;23.10;52.60
9425;DHT22;17139;52.140;11.636;2023-06-24T13:53:09;23.10;52.80
9425;DHT22;17139;52.140;11.636;2023-06-24T13:55:36;23.00;53.20
9425;DHT22;17139;52.140;11.636;2023-06-24T13:58:03;23.60;50.00
9425;DHT22;17139;52.140;11.636;2023-06-24T14:00:30;23.50;51.40
9425;DHT22;17139;52.140;11.636;2023-06-24T14:02:57;23.40;51.90
9425;DHT22;17139;52.140;11.636;2023-06-24T14:05:25;24.00;48.70
9425;DHT22;17139;52.140;11.636;2023-06-24T14:07:52;23.80;50.60
9425;DHT22;17139;52.140;11.636;2023-06-24T14:10:20;23.80;51.20
9425;DHT22;17139;52.140;11.636;2023-06-24T14:12:47;23.80;51.40
9425;DHT22;17139;52.140;11.636;2023-06-24T14:15:14;23.90;51.40
9425;DHT22;17139;52.140;11.636;2023-06-24T14:17:41;24.00;51.50
9425;DHT22;17139;52.140;11.636;2023-06-24T14:20:09;24.10;51.50
9425;DHT22;17139;52.140;11.636;2023-06-24T14:22:37;24.10;51.40
9425;DHT22;17139;52.140;11.636;2023-06-24T14:25:05;24.60;48.20
9425;DHT22;17139;52.140;11.636;2023-06-24T14:30:53;24.20;50.70
9425;DHT22;17139;52.140;11.636;2023-06-24T14:33:20;24.00;51.40
9425;DHT22;17139;52.140;11.636;2023-06-24T14:35:47;24.10;51.60
9425;DHT22;17139;52.140;11.636;2023-06-24T14:38:14;24.10;51.40
9425;DHT22;17139;52.140;11.636;2023-06-24T14:40:41;24.00;51.30
9425;DHT22;17139;52.140;11.636;2023-06-24T14:43:08;24.00;51.40
9425;DHT22;17139;52.140;11.636;2023-06-24T14:45:35;24.00;51.60
9425;DHT22;17139;52.140;11.636;2023-06-24T14:48:03;24.10;51.60
9425;DHT22;17139;52.140;11.636;2023-06-24T14:50:30;24.20;51.00
9425;DHT22;17139;52.140;11.636;2023-06-24T14:52:57;24.30;51.10
9425;DHT22;17139;52.140;11.636;2023-06-24T14:55:24;24.40;51.00
9425;DHT22;17139;52.140;11.636;2023-06-24T14:57:51;25.00;47.70
9425;DHT22;17139;52.140;11.636;2023-06-24T15:00:18;24.90;49.40
9425;DHT22;17139;52.140;11.636;2023-06-24T15:02:45;24.80;49.90
9425;DHT22;17139;52.140;11.636;2023-06-24T15:05:14;24.80;50.10
9425;DHT22;17139;52.140;11.636;2023-06-24T15:07:41;24.80;50.20
9425;DHT22;17139;52.140;11.636;2023-06-24T15:10:08;24.80;50.40
9425;DHT22;17139;52.140;11.636;2023-06-24T15:12:35;24.80;50.60
9425;DHT22;17139;52.140;11.636;2023-06-24T15:15:05;24.80;50.60
9425;DHT22;17139;52.140;11.636;2023-06-24T15:17:32;25.30;47.60
9425;DHT22;17139;52.140;11.636;2023-06-24T15:20:01;25.10;49.20
9425;DHT22;17139;52.140;11.636;2023-06-24T15:22:29;25.20;48.00
9425;DHT22;17139;52.140;11.636;2023-06-24T15:24:56;25.10;49.30
9425;DHT22;17139;52.140;11.636;2023-06-24T15:30:45;24.80;49.90
9425;DHT22;17139;52.140;11.636;2023-06-24T15:33:12;24.50;50.60
9425;DHT22;17139;52.140;11.636;2023-06-24T15:35:39;24.50;50.50
9425;DHT22;17139;52.140;11.636;2023-06-24T15:38:07;24.40;50.70
9425;DHT22;17139;52.140;11.636;2023-06-24T15:40:34;24.40;50.70
9425;DHT22;17139;52.140;11.636;2023-06-24T15:43:01;25.00;47.70
9425;DHT22;17139;52.140;11.636;2023-06-24T15:45:28;24.80;49.20
9425;DHT22;17139;52.140;11.636;2023-06-24T15:47:55;24.90;48.00
9425;DHT22;17139;52.140;11.636;2023-06-24T15:50:22;24.70;49.40
9425;DHT22;17139;52.140;11.636;2023-06-24T15:52:49;24.70;49.80